Time;durP1;ratioP1;P1;durP2;ratioP2;P2;SDS_P1;SDS_P2;PMS_P1;PMS_P2;Temp;Humidity;BMP_temperature;BMP_pressure;BME280_temperature;BME280_humidity;BME280_pressure;Samples;Min_cycle;Max_cycle;Signal;HPM_P1;HPM_P2
2023/06/11 00:00:57;;;;;;;8.52;5.72;;;;;;;23.07;50.66;101179.56;3583737;39;20055;-66
2023/06/11 00:03:23;;;;;;;7.57;6.22;;;;;;;23.19;51.08;101200.16;3582808;39;20305;-69
2023/06/11 00:05:48;;;;;;;8.65;6.30;;;;;;;23.17;51.03;101205.81;3583898;39;20076;-67
2023/06/11 00:08:14;;;;;;;8.23;6.60;;;;;;;23.12;51.43;101202.72;3587556;39;20063;-67
2023/06/11 00:10:40;;;;;;;10.02;6.35;;;;;;;23.09;51.02;101204.91;3585073;39;20394;-67
2023/06/11 00:13:05;;;;;;;7.82;6.30;;;;;;;23.06;51.57;101199.81;3587655;39;20052;-66
2023/06/11 00:15:31;;;;;;;9.98;5.93;;;;;;;23.02;51.81;101203.88;3583306;39;20063;-69
2023/06/11 00:17:56;;;;;;;10.32;6.82;;;;;;;22.94;51.99;101202.84;3583231;39;20097;-67
2023/06/11 00:20:23;;;;;;;9.25;7.60;;;;;;;22.89;52.00;101199.69;3583248;39;20330;-67
2023/06/11 00:22:49;;;;;;;7.55;6.85;;;;;;;22.86;52.59;101202.75;3585423;39;20123;-67
2023/06/11 00:25:15;;;;;;;9.70;7.03;;;;;;;22.82;52.41;101203.28;3588780;39;20054;-67
2023/06/11 00:27:41;;;;;;;10.55;6.28;;;;;;;22.78;52.70;101191.78;3581802;39;20060;-69
2023/06/11 00:30:07;;;;;;;8.13;6.32;;;;;;;22.76;52.51;101196.56;3581376;39;20064;-67
2023/06/11 00:32:35;;;;;;;7.05;6.35;;;;;;;22.74;52.87;101195.88;3582458;39;20056;-67
2023/06/11 00:35:06;;;;;;;9.20;6.25;;;;;;;22.70;53.19;101189.00;3588231;39;20063;-67
2023/06/11 00:37:34;;;;;;;6.88;6.18;;;;;;;22.69;53.12;101198.25;3585550;39;20091;-67
2023/06/11 00:40:00;;;;;;;9.77;6.45;;;;;;;22.65;53.54;101194.13;3586454;39;20061;-67
2023/06/11 00:42:27;;;;;;;6.80;6.00;;;;;;;22.56;52.96;101181.41;3592475;39;20055;-67
2023/06/11 00:44:54;;;;;;;12.25;6.75;;;;;;;22.32;53.86;101150.13;3586866;39;20454;-67
2023/06/11 00:47:20;;;;;;;10.77;6.50;;;;;;;22.52;53.80;101185.50;3585207;39;20479;-67
2023/06/11 00:49:46;;;;;;;10.15;6.55;;;;;;;22.48;53.85;101193.19;3584289;39;20063;-67
2023/06/11 00:52:15;;;;;;;9.77;6.85;;;;;;;22.46;54.15;101193.34;3585013;39;20377;-68
2023/06/11 00:54:42;;;;;;;7.82;6.13;;;;;;;22.41;54.03;101190.25;3584459;39;20063;-68
2023/06/11 00:57:08;;;;;;;7.38;6.13;;;;;;;22.34;55.12;101177.38;3587147;39;20131;-67
2023/06/11 00:59:35;;;;;;;9.10;6.80;;;;;;;22.34;54.98;101194.66;3583733;39;20129;-67
2023/06/11 01:02:17;;;;;;;9.25;6.38;;;;;;;22.03;54.47;101143.09;3582478;39;20051;-67
2023/06/11 01:04:46;;;;;;;9.25;6.25;;;;;;;22.12;54.76;101159.59;3585214;39;20469;-67
2023/06/11 01:07:18;;;;;;;7.85;6.03;;;;;;;22.02;54.89;101155.06;3586547;39;20056;-67
2023/06/11 01:09:45;;;;;;;8.70;6.57;;;;;;;22.23;55.24;101197.66;3586102;39;20614;-67
2023/06/11 01:12:12;;;;;;;12.20;7.47;;;;;;;22.18;55.44;101194.56;3590539;39;21463;-67
2023/06/11 01:14:40;;;;;;;13.70;7.68;;;;;;;22.14;55.42;101198.63;3589056;39;20043;-67
2023/06/11 01:17:15;;;;;;;12.68;7.78;;;;;;;22.08;55.33;101188.31;3591801;39;20048;-67
2023/06/11 01:20:11;;;;;;;13.20;7.72;;;;;;;22.08;55.81;101193.78;3586473;39;20348;-68
2023/06/11 01:23:21;;;;;;;10.77;7.63;;;;;;;22.00;56.36;101198.16;3585947;39;20055;-68
2023/06/11 01:25:52;;;;;;;11.30;7.20;;;;;;;21.96;56.55;101191.31;3586300;39;20056;-67
2023/06/11 01:28:28;;;;;;;12.23;7.18;;;;;;;21.91;57.09;101187.31;3583185;39;20073;-67
2023/06/11 01:30:58;;;;;;;10.95;7.25;;;;;;;21.84;56.38;101192.56;3585771;39;20066;-68
2023/06/11 01:33:27;;;;;;;11.02;7.32;;;;;;;21.85;57.18;101194.31;3584976;39;20520;-68
2023/06/11 01:35:57;;;;;;;9.85;6.97;;;;;;;21.80;56.73;101188.44;3582856;39;20096;-67
2023/06/11 01:38:25;;;;;;;9.15;7.13;;;;;;;21.71;57.20;101181.19;3586008;39;20064;-68
2023/06/11 01:40:55;;;;;;;8.43;7.50;;;;;;;21.72;57.25;101200.16;3587561;39;20345;-68
2023/06/11 01:43:23;;;;;;;8.77;7.35;;;;;;;21.62;57.27;101188.47;3586275;39;20055;-67
2023/06/11 01:45:49;;;;;;;8.73;6.70;;;;;;;21.62;57.24;101195.81;3583353;39;20344;-67
2023/06/11 01:48:14;;;;;;;11.38;7.78;;;;;;;21.41;57.25;101166.94;3584268;39;20054;-67
2023/06/11 01:50:40;;;;;;;10.57;7.00;;;;;;;21.54;58.12;101197.47;3582410;39;20458;-66
2023/06/11 01:53:06;;;;;;;7.82;7.03;;;;;;;21.53;58.13;101200.34;3585083;39;20051;-67
2023/06/11 01:55:31;;;;;;;12.25;7.40;;;;;;;21.50;57.57;101201.56;3586710;39;20657;-66
2023/06/11 01:57:57;;;;;;;8.73;7.45;;;;;;;21.47;58.41;101200.97;3584083;39;20272;-67
2023/06/11 02:00:23;;;;;;;9.82;7.55;;;;;;;21.47;57.70;101190.03;3583352;39;20086;-69
2023/06/11 02:02:48;;;;;;;8.35;7.60;;;;;;;21.42;58.41;101204.19;3582911;39;20272;-66
2023/06/11 02:05:15;;;;;;;8.38;7.50;;;;;;;21.36;58.29;101193.03;3585841;39;20048;-67
2023/06/11 02:07:40;;;;;;;10.70;7.70;;;;;;;21.36;58.86;101199.34;3583731;39;20277;-68
2023/06/11 02:10:06;;;;;;;9.15;8.05;;;;;;;21.36;59.04;101198.50;3573733;39;20047;-67
2023/06/11 02:12:32;;;;;;;9.40;8.32;;;;;;;21.33;58.67;101196.88;3584508;39;20160;-67
2023/06/11 02:14:58;;;;;;;11.07;8.07;;;;;;;21.30;58.93;101199.94;3583379;39;20412;-67
2023/06/11 02:17:23;;;;;;;12.77;8.00;;;;;;;21.28;59.28;101202.84;3583626;39;20059;-67
2023/06/11 02:19:49;;;;;;;10.10;7.95;;;;;;;21.26;59.32;101198.53;3583310;39;20048;-67
2023/06/11 02:22:15;;;;;;;12.52;8.00;;;;;;;21.24;59.44;101195.94;3586847;39;20312;-67
2023/06/11 02:24:41;;;;;;;10.82;8.32;;;;;;;21.24;59.25;101206.03;3585790;39;20094;-67
2023/06/11 02:27:06;;;;;;;9.35;8.32;;;;;;;21.23;59.63;101196.09;3581486;39;20406;-67
2023/06/11 02:29:32;;;;;;;11.10;7.35;;;;;;;21.20;59.84;101199.16;3582619;39;20056;-67
2023/06/11 02:31:58;;;;;;;14.25;8.07;;;;;;;21.18;59.54;101201.16;3583376;39;20166;-67
2023/06/11 02:34:24;;;;;;;9.90;8.30;;;;;;;21.14;59.74;101200.63;3586288;39;20377;-67
2023/06/11 02:36:50;;;;;;;9.10;7.55;;;;;;;21.12;60.30;101201.78;3581068;39;20052;-67
2023/06/11 02:39:16;;;;;;;11.40;8.18;;;;;;;21.11;60.36;101203.66;3585273;39;20060;-67
2023/06/11 02:41:41;;;;;;;9.82;7.95;;;;;;;21.06;60.20;101197.81;3580879;39;20122;-68
2023/06/11 02:44:07;;;;;;;10.63;7.68;;;;;;;21.06;59.59;101209.63;3580291;39;20063;-67
2023/06/11 02:46:33;;;;;;;11.73;8.27;;;;;;;21.06;60.21;101200.56;3585839;39;20401;-68
2023/06/11 02:48:58;;;;;;;10.95;8.23;;;;;;;21.01;60.06;101198.25;3584819;39;20476;-68
2023/06/11 02:51:24;;;;;;;10.85;8.35;;;;;;;20.99;59.99;101200.28;3586037;39;20051;-68
2023/06/11 02:53:50;;;;;;;10.32;8.05;;;;;;;20.97;60.57;101205.06;3584028;39;20536;-67
2023/06/11 02:56:16;;;;;;;8.95;8.00;;;;;;;20.95;60.14;101201.59;3586749;39;20099;-68
2023/06/11 02:58:41;;;;;;;10.27;8.85;;;;;;;20.94;59.99;101204.50;3590168;39;21350;-67
2023/06/11 03:01:07;;;;;;;11.73;8.50;;;;;;;20.91;60.77;101205.66;3585794;39;20055;-68
2023/06/11 03:03:33;;;;;;;9.68;8.70;;;;;;;20.90;60.48;101201.22;3584853;39;20063;-67
2023/06/11 03:05:58;;;;;;;10.13;9.00;;;;;;;20.87;60.96;101204.25;3586446;39;20059;-67
2023/06/11 03:08:24;;;;;;;10.05;8.75;;;;;;;20.84;60.54;101199.09;3585869;39;20074;-67
2023/06/11 03:10:49;;;;;;;10.90;9.07;;;;;;;20.81;61.39;101196.69;3583676;39;20051;-68
2023/06/11 03:13:15;;;;;;;9.25;8.13;;;;;;;20.78;61.15;101199.72;3584124;39;20386;-69
2023/06/11 03:15:41;;;;;;;10.50;8.60;;;;;;;20.70;61.82;101192.25;3584449;39;21464;-66
2023/06/11 03:18:06;;;;;;;11.32;8.75;;;;;;;20.60;61.53;101184.13;3586863;39;20693;-66
2023/06/11 03:20:32;;;;;;;9.55;8.65;;;;;;;19.95;61.31;101090.41;3580021;39;20105;-66
2023/06/11 03:22:57;;;;;;;10.77;9.02;;;;;;;20.64;61.73;101210.09;3584187;39;20055;-67
2023/06/11 03:25:23;;;;;;;9.95;8.93;;;;;;;20.60;61.65;101202.38;3585779;39;20081;-67
2023/06/11 03:27:48;;;;;;;12.05;8.95;;;;;;;20.56;61.96;101212.75;3583063;39;20064;-67
2023/06/11 03:30:14;;;;;;;12.05;9.25;;;;;;;20.54;62.62;101208.44;3586871;39;20511;-66
2023/06/11 03:32:40;;;;;;;12.02;9.20;;;;;;;20.51;62.19;101215.06;3571429;39;20062;-66
2023/06/11 03:35:06;;;;;;;12.55;9.48;;;;;;;20.49;62.28;101211.59;3585913;39;20067;-67
2023/06/11 03:37:31;;;;;;;10.40;9.32;;;;;;;20.48;62.99;101215.31;3581921;39;20044;-67
2023/06/11 03:39:59;;;;;;;10.63;9.57;;;;;;;20.45;63.42;101214.78;3580867;39;20052;-67
2023/06/11 03:42:25;;;;;;;10.57;9.52;;;;;;;20.42;62.56;101213.19;3585658;39;20062;-67
2023/06/11 03:44:53;;;;;;;11.70;10.18;;;;;;;20.37;63.44;101215.53;3583698;39;20142;-67
2023/06/11 03:47:18;;;;;;;12.20;9.63;;;;;;;20.32;63.90;101218.69;3585224;39;20051;-66
2023/06/11 03:49:45;;;;;;;12.05;9.60;;;;;;;20.32;63.62;101226.88;3583589;39;20083;-67
2023/06/11 03:52:11;;;;;;;14.60;10.32;;;;;;;20.16;63.99;101194.75;3584951;39;20533;-68
2023/06/11 03:54:37;;;;;;;16.48;9.88;;;;;;;20.30;63.82;101218.00;3586205;39;20097;-68
2023/06/11 03:57:02;;;;;;;15.18;10.40;;;;;;;20.27;63.64;101223.75;3583960;39;20306;-68
2023/06/11 03:59:28;;;;;;;14.65;10.00;;;;;;;;;;3584406;39;20318;-67
2023/06/11 04:01:54;;;;;;;18.23;10.07;;;;;;;20.22;64.03;101217.00;3571453;40;20059;-68
2023/06/11 04:04:19;;;;;;;20.48;11.32;;;;;;;20.22;64.68;101219.75;3583744;39;20435;-68
2023/06/11 04:06:45;;;;;;;13.18;10.40;;;;;;;20.24;64.51;101228.66;3580812;39;20102;-68
2023/06/11 04:09:11;;;;;;;13.80;10.68;;;;;;;20.24;64.55;101231.38;3581733;39;20059;-68
2023/06/11 04:11:36;;;;;;;15.35;11.18;;;;;;;20.26;65.21;101226.63;3577367;39;20084;-68
2023/06/11 04:14:02;;;;;;;12.90;10.40;;;;;;;20.28;64.02;101220.00;3581803;39;20052;-68
2023/06/11 04:16:27;;;;;;;16.98;11.57;;;;;;;20.29;64.28;101226.31;3581914;40;20063;-69
2023/06/11 04:18:53;;;;;;;24.95;11.75;;;;;;;20.32;64.93;101226.03;3583391;39;20123;-68
2023/06/11 04:21:19;;;;;;;18.27;10.25;;;;;;;20.34;64.84;101224.88;3587248;39;20059;-67
2023/06/11 04:23:44;;;;;;;16.45;11.07;;;;;;;20.35;64.55;101221.13;3584618;39;21394;-67
2023/06/11 04:26:10;;;;;;;13.38;10.20;;;;;;;20.44;63.70;101233.03;3583156;39;20340;-68
2023/06/11 04:28:37;;;;;;;16.40;10.73;;;;;;;20.45;63.86;101229.28;3585066;39;20413;-69
2023/06/11 04:31:06;;;;;;;13.40;10.30;;;;;;;20.51;64.09;101233.28;3584005;39;20086;-69
2023/06/11 04:33:33;;;;;;;12.57;10.13;;;;;;;20.22;64.28;101186.97;3583199;40;20061;-68
2023/06/11 04:36:10;;;;;;;13.55;11.02;;;;;;;20.53;63.55;101231.31;3584885;39;20051;-68
2023/06/11 04:38:38;;;;;;;17.10;11.48;;;;;;;19.92;63.82;101132.50;3582529;39;20127;-68
2023/06/11 04:41:06;;;;;;;14.82;10.73;;;;;;;20.48;63.74;101211.75;3582584;40;20357;-68
2023/06/11 04:43:34;;;;;;;15.07;10.65;;;;;;;20.66;63.54;101233.72;3582803;39;20071;-68
2023/06/11 04:46:03;;;;;;;16.40;10.63;;;;;;;20.68;64.37;101240.75;3584759;39;20067;-67
2023/06/11 04:48:34;;;;;;;13.38;11.38;;;;;;;20.70;63.33;101235.13;3583270;40;20064;-67
2023/06/11 04:51:01;;;;;;;12.70;11.25;;;;;;;20.73;64.16;101234.81;3583721;39;20056;-67
2023/06/11 04:53:28;;;;;;;16.20;12.13;;;;;;;20.75;64.13;101235.53;3582177;39;20052;-67
2023/06/11 04:55:57;;;;;;;13.43;12.02;;;;;;;20.76;63.71;101234.50;3582854;39;20064;-66
2023/06/11 04:58:27;;;;;;;15.27;12.57;;;;;;;20.44;63.89;101175.69;3582116;39;20048;-67
2023/06/11 05:00:57;;;;;;;12.95;11.70;;;;;;;20.82;63.67;101244.84;3584396;39;20051;-67
2023/06/11 05:03:26;;;;;;;12.57;11.30;;;;;;;20.84;63.70;101240.09;3583019;39;20064;-66
2023/06/11 05:05:54;;;;;;;13.43;11.82;;;;;;;20.86;62.67;101238.06;3582811;39;20056;-67
2023/06/11 05:08:25;;;;;;;14.88;12.00;;;;;;;20.85;62.11;101228.13;3585170;39;20078;-67
2023/06/11 05:10:52;;;;;;;15.13;11.65;;;;;;;20.97;62.82;101240.59;3581043;39;20127;-67
2023/06/11 05:13:24;;;;;;;15.00;12.55;;;;;;;20.98;62.01;101234.09;3583049;40;20099;-67
2023/06/11 05:15:55;;;;;;;14.20;11.88;;;;;;;21.03;61.61;101245.44;3585870;39;20063;-67
2023/06/11 05:18:22;;;;;;;12.73;11.50;;;;;;;21.08;61.75;101242.25;3575640;40;20048;-67
2023/06/11 05:20:50;;;;;;;12.73;11.45;;;;;;;21.14;61.89;101244.38;3583649;39;20422;-67
2023/06/11 05:23:17;;;;;;;12.88;11.68;;;;;;;21.17;61.15;101244.06;3583595;40;20059;-67
2023/06/11 05:25:47;;;;;;;14.57;12.50;;;;;;;21.22;61.21;101240.88;3582402;39;20071;-67
2023/06/11 05:28:15;;;;;;;13.57;12.18;;;;;;;21.28;60.74;101248.44;3582650;40;20060;-67
2023/06/11 05:30:45;;;;;;;13.60;12.25;;;;;;;21.35;61.14;101246.88;3582779;39;20067;-68
2023/06/11 05:33:13;;;;;;;12.90;11.60;;;;;;;21.39;60.38;101244.69;3583907;39;20053;-68
2023/06/11 05:35:43;;;;;;;14.32;12.18;;;;;;;21.44;60.74;101248.69;3573417;39;20064;-67
2023/06/11 05:38:09;;;;;;;12.57;11.27;;;;;;;21.50;60.49;101256.25;3580620;39;20264;-68
2023/06/11 05:40:36;;;;;;;12.20;10.88;;;;;;;21.56;60.28;101244.66;3583679;39;20396;-67
2023/06/11 05:43:04;;;;;;;12.38;11.07;;;;;;;21.63;59.47;101249.50;3581778;40;20052;-68
2023/06/11 05:45:33;;;;;;;14.52;10.40;;;;;;;21.53;59.52;101223.13;3581891;39;20059;-68
2023/06/11 05:48:00;;;;;;;11.88;10.45;;;;;;;21.78;58.89;101251.53;3582196;39;20379;-65
2023/06/11 05:50:26;;;;;;;11.45;10.30;;;;;;;21.85;58.63;101249.06;3582601;39;20055;-68
2023/06/11 05:52:52;;;;;;;11.45;9.77;;;;;;;21.97;59.04;101252.38;3583927;39;20051;-67
2023/06/11 05:55:18;;;;;;;9.93;8.95;;;;;;;22.03;57.46;101258.06;3585699;39;20071;-65
2023/06/11 05:57:43;;;;;;;12.70;8.48;;;;;;;22.14;57.45;101247.91;3581702;39;20472;-67
2023/06/11 06:00:12;;;;;;;11.75;7.90;;;;;;;22.28;57.09;101250.09;3583625;39;20259;-68
2023/06/11 06:02:41;;;;;;;9.32;8.43;;;;;;;22.40;56.37;101251.53;3584018;39;20063;-69
2023/06/11 06:05:08;;;;;;;8.68;7.80;;;;;;;22.52;56.26;101252.13;3582298;39;20056;-70
2023/06/11 06:07:33;;;;;;;10.38;8.13;;;;;;;22.57;54.87;101237.94;3583464;39;20472;-69
2023/06/11 06:10:02;;;;;;;8.25;7.45;;;;;;;22.77;54.83;101250.38;3581973;39;20186;-69
2023/06/11 06:12:28;;;;;;;8.00;7.20;;;;;;;22.87;54.20;101251.09;3584727;39;20478;-69
2023/06/11 06:14:53;;;;;;;22.05;19.85;;;;;;;22.95;55.02;101236.59;3582607;39;20115;-67
2023/06/11 06:17:19;;;;;;;30.65;27.60;;;;;;;23.08;54.25;101230.63;3572612;39;20047;-67
2023/06/11 06:19:44;;;;;;;12.90;9.73;;;;;;;23.27;53.71;101234.97;3581033;39;20063;-68
2023/06/11 06:22:10;;;;;;;10.48;8.02;;;;;;;23.47;53.22;101251.97;3585002;39;20100;-68
2023/06/11 06:24:35;;;;;;;8.55;6.90;;;;;;;23.53;53.00;101232.97;3582535;39;20113;-68
2023/06/11 06:27:01;;;;;;;7.78;6.43;;;;;;;23.75;52.63;101250.69;3579853;39;20063;-68
2023/06/11 06:29:27;;;;;;;8.10;7.25;;;;;;;23.99;51.96;101266.31;3580834;39;20439;-69
2023/06/11 06:31:52;;;;;;;8.23;6.85;;;;;;;24.13;51.78;101269.38;3581843;39;20064;-68
2023/06/11 06:34:18;;;;;;;8.73;6.40;;;;;;;24.31;52.00;101267.31;3586640;39;20059;-68
2023/06/11 06:36:45;;;;;;;9.32;8.38;;;;;;;24.45;51.41;101263.91;3580883;39;20067;-68
2023/06/11 06:39:11;;;;;;;9.82;8.85;;;;;;;24.50;51.01;101247.72;3583966;39;20382;-69
2023/06/11 06:41:36;;;;;;;13.35;11.95;;;;;;;24.76;49.83;101271.34;3581549;39;20125;-70
2023/06/11 06:44:02;;;;;;;7.93;7.10;;;;;;;24.88;50.21;101269.94;3585172;39;20370;-69
2023/06/11 06:46:28;;;;;;;7.18;6.10;;;;;;;25.01;49.32;101275.72;3584057;39;20329;-69
2023/06/11 06:48:54;;;;;;;7.72;6.72;;;;;;;25.15;49.55;101276.03;3582951;39;20330;-69
2023/06/11 06:51:20;;;;;;;6.75;6.03;;;;;;;25.28;48.46;101275.47;3583901;39;20054;-70
2023/06/11 06:53:50;;;;;;;6.55;5.95;;;;;;;25.35;47.82;101277.31;3582431;39;20468;-69
2023/06/11 06:56:17;;;;;;;6.43;5.82;;;;;;;25.49;48.23;101267.44;3583443;39;20113;-70
2023/06/11 06:58:43;;;;;;;6.78;6.15;;;;;;;25.63;48.19;101258.41;3582711;39;20978;-70
2023/06/11 07:01:09;;;;;;;6.68;5.97;;;;;;;25.76;47.59;101266.03;3580153;39;20373;-71
2023/06/11 07:03:34;;;;;;;6.72;6.13;;;;;;;25.90;47.69;101269.91;3580825;39;20060;-70
2023/06/11 07:06:00;;;;;;;6.47;5.88;;;;;;;25.51;46.32;101185.53;3583078;39;20913;-70
2023/06/11 07:08:26;;;;;;;6.57;5.95;;;;;;;26.06;46.64;101260.66;3585576;39;20381;-70
2023/06/11 07:10:55;;;;;;;6.80;6.07;;;;;;;26.21;47.01;101266.22;3581208;39;20182;-70
2023/06/11 07:13:22;;;;;;;7.82;6.20;;;;;;;26.24;46.45;101249.31;3583377;39;21452;-70
2023/06/11 07:15:49;;;;;;;6.88;6.20;;;;;;;26.46;45.98;101259.41;3579808;40;20158;-70
2023/06/11 07:18:15;;;;;;;6.35;5.85;;;;;;;26.61;46.22;101270.50;3580927;39;20091;-71
2023/06/11 07:20:41;;;;;;;6.05;5.55;;;;;;;26.69;45.32;101272.28;3585196;39;20123;-70
2023/06/11 07:23:07;;;;;;;9.20;6.20;;;;;;;26.87;46.65;101266.41;3578471;39;20400;-70
2023/06/11 07:25:33;;;;;;;6.20;5.60;;;;;;;26.72;45.44;101209.31;3578731;39;20052;-70
2023/06/11 07:28:01;;;;;;;6.82;6.07;;;;;;;27.22;45.79;101268.38;3582970;39;20255;-71
2023/06/11 07:30:32;;;;;;;10.23;9.23;;;;;;;27.26;44.64;101247.59;3580510;39;20058;-71
2023/06/11 07:32:59;;;;;;;10.95;9.82;;;;;;;27.44;44.01;101263.75;3582914;39;20156;-69
2023/06/11 07:35:26;;;;;;;8.48;7.57;;;;;;;27.64;43.22;101272.25;3582488;39;20067;-71
2023/06/11 07:37:53;;;;;;;9.02;5.90;;;;;;;27.84;44.09;101279.91;3579777;39;20062;-68
2023/06/11 07:40:20;;;;;;;7.03;5.80;;;;;;;27.98;44.09;101270.72;3583957;39;20052;-71
2023/06/11 07:42:47;;;;;;;7.93;5.75;;;;;;;28.07;42.93;101276.94;3580443;39;20157;-70
2023/06/11 07:45:14;;;;;;;6.47;5.80;;;;;;;28.10;42.23;101274.66;3583712;39;20138;-71
2023/06/11 07:47:41;;;;;;;6.03;5.53;;;;;;;28.20;42.76;101271.53;3582608;39;20103;-71
2023/06/11 07:50:09;;;;;;;7.53;6.85;;;;;;;27.76;41.74;101198.00;3585164;39;20055;-70
2023/06/11 07:52:35;;;;;;;7.40;6.70;;;;;;;28.23;42.14;101271.13;3583653;39;20500;-71
2023/06/11 07:55:02;;;;;;;6.18;5.57;;;;;;;28.27;41.55;101275.22;3582646;39;20118;-71
2023/06/11 07:57:28;;;;;;;7.50;5.47;;;;;;;28.32;42.24;101245.03;3584575;39;20063;-69
2023/06/11 07:59:54;;;;;;;6.95;5.97;;;;;;;28.17;41.84;101213.88;3583920;39;20074;-69
2023/06/11 08:02:20;;;;;;;6.68;5.82;;;;;;;28.71;41.57;101287.91;3583474;39;20064;-69
2023/06/11 08:04:45;;;;;;;8.20;5.30;;;;;;;28.84;41.13;101284.34;3586009;39;20056;-70
2023/06/11 08:07:12;;;;;;;9.15;5.70;;;;;;;29.10;39.97;101284.50;3584565;39;20603;-69
2023/06/11 08:09:38;;;;;;;7.15;5.68;;;;;;;29.00;39.73;101278.47;3586149;39;20147;-69
2023/06/11 08:12:08;;;;;;;6.10;5.50;;;;;;;29.08;40.61;101280.22;3588204;39;20484;-69
2023/06/11 08:14:35;;;;;;;8.85;5.35;;;;;;;29.23;40.64;101280.94;3584663;39;20059;-69
2023/06/11 08:17:02;;;;;;;5.85;5.35;;;;;;;29.34;39.37;101279.50;3586156;39;20055;-69
2023/06/11 08:19:28;;;;;;;12.13;10.85;;;;;;;29.36;40.29;101281.00;3583171;39;20066;-70
2023/06/11 08:21:59;;;;;;;41.67;37.60;;;;;;;29.53;39.17;101283.41;3582471;39;20067;-70
2023/06/11 08:24:25;;;;;;;6.57;5.97;;;;;;;29.59;40.34;101263.16;3581978;39;20060;-70
2023/06/11 08:26:50;;;;;;;6.22;5.53;;;;;;;29.75;39.51;101271.13;3584942;39;20405;-70
2023/06/11 08:29:16;;;;;;;7.15;5.57;;;;;;;29.45;39.38;101178.31;3586181;39;20048;-69
2023/06/11 08:31:42;;;;;;;7.05;5.60;;;;;;;30.13;38.52;101269.63;3586728;39;20739;-71
2023/06/11 08:34:09;;;;;;;6.72;5.78;;;;;;;30.16;38.56;101270.09;3586980;39;20055;-70
2023/06/11 08:36:35;;;;;;;6.45;5.45;;;;;;;30.18;38.42;101264.31;3586180;39;20062;-70
2023/06/11 08:39:01;;;;;;;6.20;5.70;;;;;;;30.20;38.82;101265.00;3579847;39;20056;-71
2023/06/11 08:41:31;;;;;;;5.78;5.10;;;;;;;30.12;38.52;101257.69;3586000;39;20100;-69
2023/06/11 08:43:58;;;;;;;6.97;4.90;;;;;;;30.19;38.97;101264.13;3580753;39;20231;-69
2023/06/11 08:46:24;;;;;;;6.10;5.50;;;;;;;30.48;37.77;101261.97;3585330;39;20063;-69
2023/06/11 08:49:02;;;;;;;6.15;5.65;;;;;;;30.29;38.27;101247.94;3584115;39;20481;-70
2023/06/11 08:51:37;;;;;;;5.70;5.18;;;;;;;30.51;37.63;101255.97;3584916;39;20498;-70
2023/06/11 08:54:07;;;;;;;5.90;5.40;;;;;;;30.68;38.23;101253.63;3586229;39;20063;-70
2023/06/11 08:56:34;;;;;;;6.07;5.57;;;;;;;30.74;37.45;101249.97;3584054;39;20502;-71
2023/06/11 08:59:01;;;;;;;6.03;5.43;;;;;;;30.96;37.71;101248.66;3589270;39;20059;-70
2023/06/11 09:01:27;;;;;;;5.82;5.25;;;;;;;31.16;37.18;101248.56;3590037;39;20373;-70
2023/06/11 09:03:53;;;;;;;5.68;5.18;;;;;;;31.28;36.63;101248.72;3588331;39;20184;-70
2023/06/11 09:06:19;;;;;;;5.38;4.95;;;;;;;31.37;36.31;101257.69;3585444;39;20058;-70
2023/06/11 09:09:08;;;;;;;5.13;4.60;;;;;;;31.42;35.73;101242.03;3584965;39;20064;-70
2023/06/11 09:11:38;;;;;;;5.13;4.70;;;;;;;31.47;34.74;101248.88;3586294;39;20448;-70
2023/06/11 09:14:05;;;;;;;6.47;5.32;;;;;;;31.56;34.43;101248.38;3587325;39;20081;-70
2023/06/11 09:16:43;;;;;;;4.93;4.40;;;;;;;31.57;35.06;101249.22;3585597;39;20064;-71
2023/06/11 09:19:15;;;;;;;7.63;4.70;;;;;;;31.64;34.73;101239.75;3582642;39;20742;-70
2023/06/11 09:21:54;;;;;;;9.05;7.82;;;;;;;31.91;34.13;101239.63;3584760;39;20137;-69
2023/06/11 09:24:23;;;;;;;8.70;6.50;;;;;;;31.94;34.74;101239.16;3584868;39;20123;-70
2023/06/11 09:26:58;;;;;;;5.20;4.78;;;;;;;32.05;35.11;101241.19;3581411;39;20052;-70
2023/06/11 09:29:27;;;;;;;6.18;4.85;;;;;;;32.14;35.04;101231.47;3585011;39;20363;-70
2023/06/11 09:32:06;;;;;;;6.30;4.70;;;;;;;32.27;35.68;101240.78;3582749;39;20152;-70
2023/06/11 09:34:32;;;;;;;5.43;4.90;;;;;;;32.55;35.20;101241.19;3583181;39;20068;-72
2023/06/11 09:36:57;;;;;;;7.22;4.78;;;;;;;32.79;34.33;101241.31;3582211;39;20063;-70
2023/06/11 09:39:23;;;;;;;5.05;4.50;;;;;;;32.98;33.75;101240.28;3583676;39;20317;-70
2023/06/11 09:41:51;;;;;;;6.75;4.88;;;;;;;32.93;33.28;101254.03;3576111;40;20059;-70
2023/06/11 09:44:18;;;;;;;5.80;4.47;;;;;;;32.94;33.70;101243.72;3583018;39;20380;-70
2023/06/11 09:46:46;;;;;;;4.80;4.40;;;;;;;33.17;33.72;101254.19;3582718;39;20117;-70
2023/06/11 09:49:14;;;;;;;5.53;4.65;;;;;;;33.26;32.53;101250.00;3582757;39;20056;-70
2023/06/11 09:51:40;;;;;;;5.38;4.75;;;;;;;33.24;32.41;101243.81;3583736;39;20064;-70
2023/06/11 09:54:07;;;;;;;5.18;4.68;;;;;;;33.16;32.85;101258.06;3581953;39;20074;-70
2023/06/11 09:56:37;;;;;;;4.70;4.30;;;;;;;32.84;32.21;101199.72;3588521;39;20380;-70
2023/06/11 09:59:04;;;;;;;5.20;4.45;;;;;;;33.20;31.61;101259.28;3581688;39;20060;-69
2023/06/11 10:01:33;;;;;;;5.10;4.70;;;;;;;33.14;31.89;101260.22;3582136;39;20071;-69
2023/06/11 10:04:00;;;;;;;29.88;26.77;;;;;;;33.27;32.47;101246.09;3581776;39;20081;-69
2023/06/11 10:06:37;;;;;;;4.82;4.43;;;;;;;33.47;30.83;101257.00;3585000;39;20055;-69
2023/06/11 10:09:11;;;;;;;5.68;4.10;;;;;;;33.42;30.81;101254.91;3584578;39;20086;-69
2023/06/11 10:11:40;;;;;;;5.78;4.45;;;;;;;33.52;30.32;101234.84;3581313;39;20481;-70
2023/06/11 10:14:13;;;;;;;6.00;3.65;;;;;;;33.82;30.00;101256.28;3580203;39;20477;-70
2023/06/11 10:16:39;;;;;;;4.50;4.10;;;;;;;33.58;29.77;101210.75;3580446;39;20511;-70
2023/06/11 10:19:10;;;;;;;6.25;4.50;;;;;;;33.80;29.60;101262.09;3581058;39;20063;-70
2023/06/11 10:21:50;;;;;;;4.75;4.10;;;;;;;33.85;29.14;101255.81;3571711;40;20153;-69
2023/06/11 10:24:28;;;;;;;4.63;4.22;;;;;;;33.89;29.59;101240.28;3571327;40;20612;-72
2023/06/11 10:27:34;;;;;;;4.43;4.10;;;;;;;33.89;29.71;101249.50;3585843;39;20072;-70
2023/06/11 10:29:59;;;;;;;5.38;4.20;;;;;;;34.14;29.73;101248.50;3578094;39;20113;-70
2023/06/11 10:32:25;;;;;;;5.28;3.88;;;;;;;34.33;28.72;101247.28;3576481;39;20059;-69
2023/06/11 10:35:04;;;;;;;5.65;4.10;;;;;;;33.90;29.00;101163.88;3580458;39;20063;-69
2023/06/11 10:37:32;;;;;;;4.90;4.28;;;;;;;34.28;28.56;101237.94;3576967;39;20064;-70
2023/06/11 10:39:59;;;;;;;6.60;4.15;;;;;;;34.24;28.82;101237.56;3580764;39;20066;-70
2023/06/11 10:42:38;;;;;;;4.85;4.45;;;;;;;34.16;28.98;101212.84;3576677;39;20063;-69
2023/06/11 10:45:13;;;;;;;5.82;5.10;;;;;;;34.31;29.11;101248.63;3583222;39;20667;-70
2023/06/11 10:47:50;;;;;;;5.32;4.28;;;;;;;34.25;28.49;101216.94;3584181;39;20275;-70
2023/06/11 10:50:31;;;;;;;5.53;4.03;;;;;;;34.50;29.34;101239.00;3585476;39;20063;-69
2023/06/11 10:53:08;;;;;;;4.53;4.10;;;;;;;33.83;28.78;101133.31;3584109;40;20048;-70
2023/06/11 10:55:34;;;;;;;5.53;5.03;;;;;;;34.53;28.32;101232.13;3583123;40;20058;-70
2023/06/11 10:58:01;;;;;;;6.57;4.60;;;;;;;34.50;28.67;101236.22;3574952;39;20600;-71
2023/06/11 11:00:32;;;;;;;5.63;4.10;;;;;;;34.50;29.56;101247.38;3584946;39;20062;-69
2023/06/11 11:03:03;;;;;;;4.43;4.00;;;;;;;34.39;28.36;101246.31;3583875;40;20048;-68
2023/06/11 11:05:29;;;;;;;5.40;4.90;;;;;;;34.23;27.89;101240.63;3585523;40;20044;-69
2023/06/11 11:07:55;;;;;;;5.15;4.68;;;;;;;34.13;28.99;101193.78;3584035;40;20048;-70
2023/06/11 11:10:26;;;;;;;8.20;5.07;;;;;;;34.58;27.91;101246.22;3582845;40;20149;-69
2023/06/11 11:12:54;;;;;;;6.68;4.30;;;;;;;34.50;28.75;101235.38;3584237;39;20103;-69
2023/06/11 11:15:20;;;;;;;4.50;3.83;;;;;;;34.52;28.15;101236.84;3585292;40;20059;-70
2023/06/11 11:17:48;;;;;;;4.65;4.15;;;;;;;34.60;27.59;101235.63;3584388;40;20125;-70
2023/06/11 11:20:17;;;;;;;5.05;3.72;;;;;;;34.60;28.49;101230.06;3584404;40;20052;-70
2023/06/11 11:22:51;;;;;;;4.28;3.35;;;;;;;34.80;27.13;101236.09;3586160;40;20210;-69
2023/06/11 11:25:20;;;;;;;3.60;3.30;;;;;;;34.84;27.08;101226.13;3584352;40;20379;-69